Time;durP1;ratioP1;P1;durP2;ratioP2;P2;SDS_P1;SDS_P2;PMS_P1;PMS_P2;Temp;Humidity;BMP_temperature;BMP_pressure;BME280_temperature;BME280_humidity;BME280_pressure;Samples;Min_cycle;Max_cycle;Signal;HPM_P1;HPM_P2
2024/01/04 00:01:24;;;;;;;0.10;0.10;;;;;;;;;;5096755;27;20029;-79
2024/01/04 00:03:50;;;;;;;0.10;0.10;;;;;;;;;;5097243;27;20060;-79
2024/01/04 00:06:19;;;;;;;0.10;0.10;;;;;;;;;;5095590;28;20151;-77
2024/01/04 00:08:46;;;;;;;0.10;0.10;;;;;;;;;;5106443;28;20048;-78
2024/01/04 00:11:13;;;;;;;0.10;0.10;;;;;;;;;;5107549;28;20066;-78
2024/01/04 00:13:39;;;;;;;0.10;0.10;;;;;;;;;;5170253;22;20073;-86
2024/01/04 00:16:10;;;;;;;0.10;0.10;;;;;;;;;;5103034;28;20126;-84
2024/01/04 00:18:37;;;;;;;0.10;0.10;;;;;;;;;;5099337;28;20111;-83
2024/01/04 00:21:03;;;;;;;0.10;0.10;;;;;;;;;;5094661;28;20068;-83
2024/01/04 00:23:34;;;;;;;0.10;0.10;;;;;;;;;;5099497;28;20951;-84
2024/01/04 00:26:01;;;;;;;0.10;0.10;;;;;;;;;;5091227;28;20052;-83
2024/01/04 00:28:28;;;;;;;0.10;0.10;;;;;;;;;;5098831;28;20066;-83
2024/01/04 00:30:54;;;;;;;0.08;0.08;;;;;;;;;;5101248;28;20044;-85
2024/01/04 00:33:21;;;;;;;0.10;0.10;;;;;;;;;;5101023;28;20056;-85
2024/01/04 00:35:47;;;;;;;0.10;0.10;;;;;;;;;;5099331;28;20056;-84
2024/01/04 00:38:14;;;;;;;0.10;0.10;;;;;;;;;;5091114;28;20060;-83
2024/01/04 00:40:41;;;;;;;0.10;0.10;;;;;;;;;;5098906;28;20145;-84
2024/01/04 00:43:07;;;;;;;0.10;0.10;;;;;;;;;;5091989;28;20072;-85
2024/01/04 00:45:34;;;;;;;0.10;0.10;;;;;;;;;;5100118;28;21052;-84
2024/01/04 00:48:02;;;;;;;0.10;0.10;;;;;;;;;;5098473;28;20399;-84
2024/01/04 00:50:28;;;;;;;0.10;0.10;;;;;;;;;;5096475;28;20068;-83
2024/01/04 00:52:55;;;;;;;0.10;0.10;;;;;;;;;;5095101;28;20107;-83
2024/01/04 00:55:34;;;;;;;0.10;0.10;;;;;;;;;;5085408;28;20049;-84
2024/01/04 00:58:03;;;;;;;0.10;0.10;;;;;;;;;;5090023;28;20060;-85
2024/01/04 01:00:30;;;;;;;0.10;0.10;;;;;;;;;;5101648;28;20048;-84
2024/01/04 01:02:57;;;;;;;0.10;0.10;;;;;;;;;;5098874;28;20053;-85
2024/01/04 01:05:23;;;;;;;0.10;0.10;;;;;;;;;;5097438;28;20056;-84
2024/01/04 01:07:50;;;;;;;0.10;0.10;;;;;;;;;;5100694;28;20053;-83
2024/01/04 01:10:16;;;;;;;0.10;0.10;;;;;;;;;;5097021;28;20040;-83
2024/01/04 01:12:43;;;;;;;0.00;0.00;;;;;;;;;;5092748;28;20055;-83
2024/01/04 01:15:09;;;;;;;0.10;0.10;;;;;;;;;;5098658;28;20028;-84
2024/01/04 01:17:35;;;;;;;0.10;0.10;;;;;;;;;;5098368;28;20065;-84
2024/01/04 01:20:02;;;;;;;0.10;0.10;;;;;;;;;;5103389;28;20056;-84
2024/01/04 01:22:29;;;;;;;0.10;0.10;;;;;;;;;;5091631;28;20033;-83
2024/01/04 01:24:55;;;;;;;0.10;0.10;;;;;;;;;;5101491;28;20056;-84
2024/01/04 01:27:22;;;;;;;0.10;0.10;;;;;;;;;;5097533;28;20041;-85
2024/01/04 01:29:48;;;;;;;0.20;0.20;;;;;;;;;;5097398;28;20048;-84
2024/01/04 01:32:15;;;;;;;0.10;0.10;;;;;;;;;;5101534;28;20059;-83
2024/01/04 01:34:42;;;;;;;0.10;0.10;;;;;;;;;;5102183;28;20049;-83
2024/01/04 01:37:09;;;;;;;0.10;0.10;;;;;;;;;;5118927;27;20053;-84
2024/01/04 01:39:36;;;;;;;0.10;0.10;;;;;;;;;;5100620;28;20056;-83
2024/01/04 01:42:03;;;;;;;0.20;0.20;;;;;;;;;;5099954;28;20059;-85
2024/01/04 01:44:29;;;;;;;0.10;0.10;;;;;;;;;;5097130;28;20044;-84
2024/01/04 01:46:56;;;;;;;0.10;0.10;;;;;;;;;;5101891;28;20056;-83
2024/01/04 01:49:22;;;;;;;0.10;0.10;;;;;;;;;;5101623;28;20102;-83
2024/01/04 01:51:49;;;;;;;0.10;0.10;;;;;;;;;;5102395;28;20068;-85
2024/01/04 01:54:16;;;;;;;0.10;0.10;;;;;;;;;;5105275;28;20048;-84
2024/01/04 01:56:42;;;;;;;0.10;0.10;;;;;;;;;;5101210;28;20041;-83
2024/01/04 01:59:09;;;;;;;0.10;0.10;;;;;;;;;;5099386;28;20049;-84
2024/01/04 02:01:46;;;;;;;0.10;0.10;;;;;;;;;;5103200;28;20044;-84
2024/01/04 02:04:13;;;;;;;0.10;0.10;;;;;;;;;;5101694;28;20041;-84
2024/01/04 02:06:39;;;;;;;0.10;0.10;;;;;;;;;;5100115;28;20048;-83
2024/01/04 02:09:06;;;;;;;0.10;0.10;;;;;;;;;;5098784;28;20083;-84
2024/01/04 02:11:33;;;;;;;0.10;0.10;;;;;;;;;;5094172;28;20055;-83
2024/01/04 02:13:59;;;;;;;0.10;0.10;;;;;;;;;;5098744;28;20037;-84
2024/01/04 02:16:26;;;;;;;0.10;0.10;;;;;;;;;;5103490;28;20067;-84
2024/01/04 02:18:52;;;;;;;0.10;0.10;;;;;;;;;;5096253;28;20053;-82
2024/01/04 02:21:19;;;;;;;0.10;0.10;;;;;;;;;;5096177;28;20071;-84
2024/01/04 02:23:45;;;;;;;0.13;0.13;;;;;;;;;;5102107;28;20067;-84
2024/01/04 02:26:12;;;;;;;0.10;0.10;;;;;;;;;;5106157;28;20048;-84
2024/01/04 02:28:38;;;;;;;0.10;0.10;;;;;;;;;;5101972;28;20817;-84
2024/01/04 02:31:05;;;;;;;0.10;0.10;;;;;;;;;;5105670;28;20124;-83
2024/01/04 02:33:31;;;;;;;0.10;0.10;;;;;;;;;;5105525;28;20905;-85
2024/01/04 02:35:58;;;;;;;0.10;0.10;;;;;;;;;;5103954;28;20122;-83
2024/01/04 02:38:25;;;;;;;0.10;0.10;;;;;;;;;;5104361;28;20052;-84
2024/01/04 02:40:53;;;;;;;0.10;0.10;;;;;;;;;;5102898;28;20048;-83
2024/01/04 02:43:19;;;;;;;0.10;0.10;;;;;;;;;;5105804;28;20053;-83
2024/01/04 02:45:46;;;;;;;0.10;0.10;;;;;;;;;;5105226;28;20075;-83
2024/01/04 02:48:12;;;;;;;0.10;0.10;;;;;;;;;;5103985;28;20052;-83
2024/01/04 02:50:39;;;;;;;0.10;0.10;;;;;;;;;;5105627;28;20052;-84
2024/01/04 02:53:05;;;;;;;0.10;0.10;;;;;;;;;;5104406;28;20073;-82
2024/01/04 02:55:32;;;;;;;0.10;0.10;;;;;;;;;;5101585;28;20100;-83
2024/01/04 02:57:59;;;;;;;0.10;0.10;;;;;;;;;;5100211;28;20053;-86
2024/01/04 03:00:27;;;;;;;0.10;0.10;;;;;;;;;;5102170;28;20059;-85
2024/01/04 03:02:53;;;;;;;0.20;0.20;;;;;;;;;;5104515;28;20076;-83
2024/01/04 03:05:20;;;;;;;0.03;0.03;;;;;;;;;;5103394;28;20052;-85
2024/01/04 03:07:46;;;;;;;0.10;0.10;;;;;;;;;;5103191;28;20059;-84
2024/01/04 03:10:13;;;;;;;0.30;0.30;;;;;;;;;;5102599;28;20067;-83
2024/01/04 03:12:39;;;;;;;0.63;0.63;;;;;;;;;;5103314;28;20052;-84
2024/01/04 03:15:06;;;;;;;0.10;0.10;;;;;;;;;;5105254;28;21094;-84
2024/01/04 03:17:33;;;;;;;0.03;0.03;;;;;;;;;;5104395;28;20061;-83
2024/01/04 03:20:00;;;;;;;0.10;0.10;;;;;;;;;;5102989;28;20785;-84
2024/01/04 03:22:26;;;;;;;0.10;0.10;;;;;;;;;;5102891;28;20064;-85
2024/01/04 03:24:53;;;;;;;0.10;0.10;;;;;;;;;;5117044;28;20081;-85
2024/01/04 03:27:19;;;;;;;0.05;0.05;;;;;;;;;;5102024;28;20056;-83
2024/01/04 03:29:46;;;;;;;0.10;0.10;;;;;;;;;;5103084;28;20059;-83
2024/01/04 03:32:12;;;;;;;0.10;0.10;;;;;;;;;;5097764;28;20503;-84
2024/01/04 03:34:39;;;;;;;0.10;0.10;;;;;;;;;;5103440;28;20053;-83
2024/01/04 03:37:05;;;;;;;0.10;0.10;;;;;;;;;;5104608;28;20585;-85
2024/01/04 03:39:32;;;;;;;0.10;0.10;;;;;;;;;;5101298;28;21254;-83
2024/01/04 03:41:58;;;;;;;0.10;0.10;;;;;;;;;;5104017;28;20072;-84
2024/01/04 03:44:25;;;;;;;0.10;0.10;;;;;;;;;;5105927;28;20106;-84
2024/01/04 03:46:51;;;;;;;0.10;0.10;;;;;;;;;;5103675;28;20568;-83
2024/01/04 03:49:18;;;;;;;0.10;0.10;;;;;;;;;;5103670;28;20980;-83
2024/01/04 03:51:44;;;;;;;0.10;0.10;;;;;;;;;;5105019;28;20048;-86
2024/01/04 03:54:11;;;;;;;0.10;0.10;;;;;;;;;;5103380;28;20080;-85
2024/01/04 03:56:38;;;;;;;0.10;0.10;;;;;;;;;;5101898;28;20052;-83
2024/01/04 03:59:04;;;;;;;0.10;0.10;;;;;;;;;;5103468;28;20071;-83
2024/01/04 04:01:31;;;;;;;0.10;0.10;;;;;;;;;;5103220;28;20165;-83
2024/01/04 04:03:57;;;;;;;0.05;0.05;;;;;;;;;;5103980;28;20060;-86
2024/01/04 04:06:24;;;;;;;0.10;0.10;;;;;;;;;;5103607;28;20075;-82
2024/01/04 04:08:50;;;;;;;0.10;0.10;;;;;;;;;;5109178;28;20090;-83
2024/01/04 04:11:17;;;;;;;0.10;0.10;;;;;;;;;;5102681;28;20096;-84
2024/01/04 04:13:44;;;;;;;0.10;0.10;;;;;;;;;;5103331;28;20801;-84
2024/01/04 04:16:10;;;;;;;0.10;0.10;;;;;;;;;;5103489;28;20524;-85
2024/01/04 04:18:37;;;;;;;0.10;0.10;;;;;;;;;;5104315;28;20068;-83
2024/01/04 04:21:04;;;;;;;0.10;0.10;;;;;;;;;;5104210;28;20579;-83
2024/01/04 04:23:30;;;;;;;0.10;0.10;;;;;;;;;;5103539;28;20112;-85
2024/01/04 04:25:57;;;;;;;0.10;0.10;;;;;;;;;;5104053;28;20049;-84
2024/01/04 04:28:23;;;;;;;0.10;0.10;;;;;;;;;;5103108;28;20048;-83
2024/01/04 04:30:50;;;;;;;0.10;0.10;;;;;;;;;;5095365;28;20052;-83
2024/01/04 04:33:17;;;;;;;0.10;0.10;;;;;;;;;;5093799;28;20049;-86
2024/01/04 04:35:43;;;;;;;0.10;0.10;;;;;;;;;;5094158;28;20056;-83
2024/01/04 04:38:24;;;;;;;0.10;0.10;;;;;;;;;;5096343;28;20052;-85
2024/01/04 04:40:50;;;;;;;0.10;0.10;;;;;;;;;;5100289;28;20048;-83
2024/01/04 04:43:17;;;;;;;0.10;0.10;;;;;;;;;;5099861;28;20407;-83
2024/01/04 04:45:43;;;;;;;0.08;0.08;;;;;;;;;;5096620;28;20049;-82
2024/01/04 04:48:10;;;;;;;0.10;0.10;;;;;;;;;;5097338;28;20108;-86
2024/01/04 04:50:36;;;;;;;0.10;0.10;;;;;;;;;;5098436;28;20509;-85
2024/01/04 04:53:03;;;;;;;0.10;0.10;;;;;;;;;;5100560;28;20920;-83
2024/01/04 04:55:29;;;;;;;0.10;0.10;;;;;;;;;;5098075;28;20064;-86
2024/01/04 04:57:56;;;;;;;0.10;0.10;;;;;;;;;;5095812;28;20053;-85
2024/01/04 05:00:22;;;;;;;0.10;0.10;;;;;;;;;;5101086;28;20538;-81
2024/01/04 05:02:49;;;;;;;0.10;0.10;;;;;;;;;;5098166;28;20529;-84
2024/01/04 05:05:15;;;;;;;0.10;0.10;;;;;;;;;;5097952;28;20108;-82
2024/01/04 05:07:42;;;;;;;0.10;0.10;;;;;;;;;;5098101;28;20525;-83
2024/01/04 05:10:08;;;;;;;0.10;0.10;;;;;;;;;;5097348;28;20613;-83
2024/01/04 05:12:36;;;;;;;0.10;0.10;;;;;;;;;;5096518;28;20100;-83
2024/01/04 05:15:09;;;;;;;;;;;;;;;;;;5097135;28;20071;-84
2024/01/04 05:17:35;;;;;;;0.10;0.10;;;;;;;;;;5107150;27;47421;-86
2024/01/04 05:20:04;;;;;;;0.10;0.10;;;;;;;;;;5099720;28;20060;-87
2024/01/04 05:22:30;;;;;;;0.10;0.10;;;;;;;;;;5098340;28;20056;-84
2024/01/04 05:24:57;;;;;;;0.03;0.03;;;;;;;;;;5101273;28;20043;-84
2024/01/04 05:27:23;;;;;;;0.00;0.00;;;;;;;;;;5100566;28;20080;-82
2024/01/04 05:29:49;;;;;;;0.03;0.03;;;;;;;;;;5099844;28;20071;-83
2024/01/04 05:32:16;;;;;;;0.10;0.10;;;;;;;;;;5100413;28;20099;-83
2024/01/04 05:34:42;;;;;;;0.10;0.10;;;;;;;;;;5102628;28;20059;-85
2024/01/04 05:37:09;;;;;;;0.10;0.10;;;;;;;;;;5100871;28;20052;-84
2024/01/04 05:39:35;;;;;;;0.10;0.10;;;;;;;;;;5097775;28;20895;-82
2024/01/04 05:42:02;;;;;;;0.10;0.10;;;;;;;;;;5085649;28;20060;-82
2024/01/04 05:44:28;;;;;;;0.10;0.10;;;;;;;;;;5092317;28;20067;-83
2024/01/04 05:46:55;;;;;;;0.10;0.10;;;;;;;;;;5086976;28;20053;-81
2024/01/04 05:49:21;;;;;;;0.10;0.10;;;;;;;;;;5087354;28;20056;-86
2024/01/04 05:51:48;;;;;;;0.10;0.10;;;;;;;;;;5093263;28;20075;-86
2024/01/04 05:54:14;;;;;;;0.10;0.10;;;;;;;;;;5098863;28;20102;-84
2024/01/04 05:56:42;;;;;;;0.10;0.10;;;;;;;;;;5091245;28;20060;-83
2024/01/04 05:59:09;;;;;;;0.10;0.10;;;;;;;;;;5091812;28;20064;-85
2024/01/04 06:01:36;;;;;;;0.10;0.10;;;;;;;;;;5087141;28;20125;-85
2024/01/04 06:04:03;;;;;;;0.10;0.10;;;;;;;;;;5083568;28;20052;-83
2024/01/04 06:06:29;;;;;;;0.10;0.10;;;;;;;;;;5086743;28;20060;-85
2024/01/04 06:08:56;;;;;;;0.10;0.10;;;;;;;;;;5092466;28;20072;-82
2024/01/04 06:11:22;;;;;;;0.10;0.10;;;;;;;;;;5089826;28;20083;-86
2024/01/04 06:13:51;;;;;;;0.05;0.05;;;;;;;;;;5093622;28;20095;-83
2024/01/04 06:16:18;;;;;;;0.10;0.10;;;;;;;;;;5094388;28;20581;-82
2024/01/04 06:18:47;;;;;;;0.10;0.10;;;;;;;;;;5090163;28;20048;-83
2024/01/04 06:21:15;;;;;;;0.10;0.10;;;;;;;;;;5083889;28;20088;-84
2024/01/04 06:23:42;;;;;;;0.10;0.10;;;;;;;;;;5091315;28;20095;-83
2024/01/04 06:26:08;;;;;;;0.10;0.10;;;;;;;;;;5094640;28;20099;-83
2024/01/04 06:28:37;;;;;;;0.10;0.10;;;;;;;;;;5098462;28;21141;-82
2024/01/04 06:31:03;;;;;;;0.10;0.10;;;;;;;;;;5086830;28;20529;-83
2024/01/04 06:33:30;;;;;;;0.10;0.10;;;;;;;;;;5097424;28;20087;-83
2024/01/04 06:35:56;;;;;;;0.10;0.10;;;;;;;;;;5086366;28;20068;-85
2024/01/04 06:38:24;;;;;;;0.10;0.10;;;;;;;;;;5095862;28;20056;-86
2024/01/04 06:40:52;;;;;;;0.10;0.10;;;;;;;;;;5092738;28;20143;-85
2024/01/04 06:43:19;;;;;;;0.10;0.10;;;;;;;;;;5089445;28;20056;-86
2024/01/04 06:45:45;;;;;;;0.10;0.10;;;;;;;;;;5092045;28;20191;-83
2024/01/04 06:48:12;;;;;;;0.10;0.10;;;;;;;;;;5095538;28;20060;-83
2024/01/04 06:50:39;;;;;;;0.10;0.10;;;;;;;;;;5097728;28;20040;-83
2024/01/04 06:53:06;;;;;;;0.10;0.10;;;;;;;;;;5095599;28;20079;-86
2024/01/04 06:55:33;;;;;;;0.10;0.10;;;;;;;;;;5097570;28;20044;-84
2024/01/04 06:58:04;;;;;;;0.00;0.00;;;;;;;;;;5096944;28;20041;-86
2024/01/04 07:00:31;;;;;;;;;;;;;;;;;;5096197;28;20066;-82
2024/01/04 07:03:01;;;;;;;0.10;0.10;;;;;;;;;;5087159;28;45406;-82
2024/01/04 07:05:28;;;;;;;0.10;0.10;;;;;;;;;;5093908;28;20056;-84
2024/01/04 07:07:56;;;;;;;0.10;0.10;;;;;;;;;;5092099;28;20696;-83
2024/01/04 07:10:23;;;;;;;0.10;0.10;;;;;;;;;;5096209;28;20067;-83
2024/01/04 07:12:50;;;;;;;0.10;0.10;;;;;;;;;;5092149;28;20077;-83
2024/01/04 07:15:21;;;;;;;0.10;0.10;;;;;;;;;;5086325;28;20483;-84
2024/01/04 07:17:48;;;;;;;0.10;0.10;;;;;;;;;;5093777;28;20235;-85
2024/01/04 07:20:16;;;;;;;0.10;0.10;;;;;;;;;;5101402;28;20055;-84
2024/01/04 07:22:52;;;;;;;0.10;0.10;;;;;;;;;;5113535;27;20072;-84
2024/01/04 07:25:23;;;;;;;0.10;0.10;;;;;;;;;;5095216;28;20068;-85
2024/01/04 07:27:53;;;;;;;0.10;0.10;;;;;;;;;;5092627;28;20071;-85
2024/01/04 07:30:23;;;;;;;0.10;0.10;;;;;;;;;;5097850;28;20122;-84
2024/01/04 07:32:56;;;;;;;0.10;0.10;;;;;;;;;;5100295;28;20076;-83
2024/01/04 07:35:26;;;;;;;0.10;0.10;;;;;;;;;;5094772;28;20045;-81
2024/01/04 07:37:55;;;;;;;0.10;0.10;;;;;;;;;;5094300;28;20059;-82
2024/01/04 07:40:21;;;;;;;0.10;0.10;;;;;;;;;;5101134;28;20075;-82
2024/01/04 07:42:48;;;;;;;0.10;0.10;;;;;;;;;;5101634;28;20057;-83
2024/01/04 07:45:14;;;;;;;0.10;0.10;;;;;;;;;;5100050;28;20533;-85
2024/01/04 07:47:41;;;;;;;0.10;0.10;;;;;;;;;;5098703;28;20047;-83
2024/01/04 07:50:08;;;;;;;0.10;0.10;;;;;;;;;;5107057;28;20064;-83
2024/01/04 07:52:34;;;;;;;0.10;0.10;;;;;;;;;;5098393;28;20052;-83
2024/01/04 07:55:01;;;;;;;0.10;0.10;;;;;;;;;;5095266;28;20058;-84
2024/01/04 07:57:32;;;;;;;0.10;0.10;;;;;;;;;;5094030;28;20040;-82
2024/01/04 07:59:59;;;;;;;0.10;0.10;;;;;;;;;;5097432;28;20041;-82
2024/01/04 08:02:28;;;;;;;0.10;0.10;;;;;;;;;;5087062;28;20057;-82
2024/01/04 08:04:56;;;;;;;0.10;0.10;;;;;;;;;;5089966;28;20053;-81
2024/01/04 08:07:23;;;;;;;0.10;0.10;;;;;;;;;;5098807;28;20139;-81
2024/01/04 08:09:49;;;;;;;0.10;0.10;;;;;;;;;;5092708;28;20048;-84
2024/01/04 08:12:16;;;;;;;0.10;0.10;;;;;;;;;;5093873;28;20052;-83
2024/01/04 08:14:42;;;;;;;0.10;0.10;;;;;;;;;;5093906;28;20067;-83
2024/01/04 08:17:18;;;;;;;0.10;0.10;;;;;;;;;;5087357;28;20052;-82
2024/01/04 08:19:46;;;;;;;0.10;0.10;;;;;;;;;;5097225;28;20055;-84
2024/01/04 08:22:13;;;;;;;0.10;0.10;;;;;;;;;;5094425;28;20075;-82
2024/01/04 08:24:44;;;;;;;0.10;0.10;;;;;;;;;;5086835;28;20041;-82
2024/01/04 08:27:11;;;;;;;0.10;0.10;;;;;;;;;;5099669;28;20171;-84
2024/01/04 08:29:48;;;;;;;0.10;0.10;;;;;;;;;;5096099;28;20132;-82
2024/01/04 08:32:15;;;;;;;0.57;0.45;;;;;;;;;;5097314;28;20040;-82
2024/01/04 08:34:41;;;;;;;0.10;0.10;;;;;;;;;;5099855;28;20049;-84
2024/01/04 08:37:13;;;;;;;0.10;0.10;;;;;;;;;;5097998;28;20103;-84
2024/01/04 08:39:40;;;;;;;0.10;0.10;;;;;;;;;;5098707;28;20130;-85
2024/01/04 08:42:06;;;;;;;0.10;0.10;;;;;;;;;;5094506;28;20052;-83
2024/01/04 08:44:33;;;;;;;0.10;0.10;;;;;;;;;;5090551;28;20039;-82
2024/01/04 08:47:00;;;;;;;0.10;0.10;;;;;;;;;;5093885;28;20060;-83
2024/01/04 08:49:26;;;;;;;0.10;0.10;;;;;;;;;;5100195;28;20053;-84
2024/01/04 08:51:53;;;;;;;0.10;0.10;;;;;;;;;;5100380;28;20091;-85
2024/01/04 08:54:19;;;;;;;0.10;0.10;;;;;;;;;;5102405;28;20040;-83
2024/01/04 08:56:46;;;;;;;0.10;0.10;;;;;;;;;;5099152;28;20048;-84
2024/01/04 08:59:15;;;;;;;0.10;0.10;;;;;;;;;;5098345;28;20094;-82
2024/01/04 09:01:42;;;;;;;0.45;0.45;;;;;;;;;;5097127;28;20106;-82
2024/01/04 09:04:09;;;;;;;0.10;0.10;;;;;;;;;;5096440;28;20127;-82
2024/01/04 09:06:36;;;;;;;0.10;0.10;;;;;;;;;;5101129;28;20048;-84
2024/01/04 09:09:05;;;;;;;0.00;0.00;;;;;;;;;;5098953;28;20048;-82
2024/01/04 09:11:34;;;;;;;0.10;0.10;;;;;;;;;;5099090;28;20056;-82
2024/01/04 09:14:04;;;;;;;0.10;0.10;;;;;;;;;;5084378;28;20061;-83
2024/01/04 09:16:30;;;;;;;0.10;0.10;;;;;;;;;;5092566;28;20076;-83
2024/01/04 09:19:02;;;;;;;0.10;0.10;;;;;;;;;;5102089;28;20789;-84
2024/01/04 09:21:29;;;;;;;0.10;0.10;;;;;;;;;;5096341;28;20134;-84
2024/01/04 09:23:55;;;;;;;0.10;0.10;;;;;;;;;;5099007;28;20100;-83
2024/01/04 09:26:22;;;;;;;0.10;0.10;;;;;;;;;;5093330;28;20200;-82
2024/01/04 09:28:48;;;;;;;0.10;0.10;;;;;;;;;;5090116;28;20083;-83
2024/01/04 09:31:15;;;;;;;0.10;0.10;;;;;;;;;;5088009;28;20052;-82
2024/01/04 09:33:41;;;;;;;0.10;0.10;;;;;;;;;;5089021;28;20139;-83
2024/01/04 09:36:08;;;;;;;0.10;0.10;;;;;;;;;;5089272;28;20059;-81
2024/01/04 09:38:35;;;;;;;0.10;0.10;;;;;;;;;;5090700;28;20045;-82
2024/01/04 09:41:14;;;;;;;0.10;0.10;;;;;;;;;;5084022;28;20056;-83
2024/01/04 09:43:42;;;;;;;0.10;0.10;;;;;;;;;;5082236;28;20133;-82
2024/01/04 09:46:12;;;;;;;0.10;0.10;;;;;;;;;;5091221;28;20055;-84
2024/01/04 09:48:49;;;;;;;0.30;0.30;;;;;;;;;;5088848;28;20051;-82
2024/01/04 09:51:16;;;;;;;0.10;0.10;;;;;;;;;;5094477;28;20060;-82
2024/01/04 09:53:43;;;;;;;0.10;0.10;;;;;;;;;;5081731;28;20109;-81
2024/01/04 09:56:14;;;;;;;0.10;0.10;;;;;;;;;;5084327;28;20064;-82
2024/01/04 09:58:45;;;;;;;0.10;0.10;;;;;;;;;;5090208;28;20098;-87
2024/01/04 10:01:12;;;;;;;0.10;0.10;;;;;;;;;;5093112;28;20505;-84
2024/01/04 10:03:41;;;;;;;0.10;0.10;;;;;;;;;;5090925;28;20107;-84
2024/01/04 10:06:08;;;;;;;0.10;0.10;;;;;;;;;;5090403;28;20045;-82
2024/01/04 10:08:37;;;;;;;0.10;0.10;;;;;;;;;;5092380;28;20489;-84
2024/01/04 10:11:10;;;;;;;0.10;0.10;;;;;;;;;;5090147;28;20084;-86
2024/01/04 10:13:37;;;;;;;0.10;0.10;;;;;;;;;;5084564;28;20080;-82
2024/01/04 10:16:05;;;;;;;0.10;0.10;;;;;;;;;;5085722;28;20065;-84
2024/01/04 10:18:34;;;;;;;0.10;0.10;;;;;;;;;;5083793;28;20087;-84
2024/01/04 10:21:04;;;;;;;0.10;0.10;;;;;;;;;;5085065;28;20144;-83
2024/01/04 10:23:32;;;;;;;0.20;0.20;;;;;;;;;;5091853;28;20763;-85
2024/01/04 10:26:10;;;;;;;0.10;0.10;;;;;;;;;;5077842;28;20052;-87
2024/01/04 10:28:40;;;;;;;0.10;0.10;;;;;;;;;;5090191;28;20100;-85
2024/01/04 10:31:11;;;;;;;;;;;;;;;;;;5084313;28;20126;-85
2024/01/04 10:33:39;;;;;;;0.10;0.10;;;;;;;;;;5083303;28;44249;-84
2024/01/04 10:36:10;;;;;;;0.10;0.10;;;;;;;;;;5086619;28;20056;-84
2024/01/04 10:38:38;;;;;;;0.10;0.10;;;;;;;;;;5086073;28;20496;-83
2024/01/04 10:41:04;;;;;;;0.10;0.10;;;;;;;;;;5089593;28;20419;-82
2024/01/04 10:43:31;;;;;;;0.10;0.10;;;;;;;;;;5089269;28;20059;-84
2024/01/04 10:46:08;;;;;;;0.10;0.10;;;;;;;;;;5087952;28;20459;-83
2024/01/04 10:48:35;;;;;;;0.10;0.10;;;;;;;;;;5086421;28;20126;-83
2024/01/04 10:51:05;;;;;;;0.13;0.13;;;;;;;;;;5083749;28;20177;-84
2024/01/04 10:53:34;;;;;;;0.10;0.10;;;;;;;;;;5079247;28;20057;-82
2024/01/04 10:56:03;;;;;;;0.10;0.10;;;;;;;;;;5087900;28;20049;-84
2024/01/04 10:58:32;;;;;;;0.20;0.20;;;;;;;;;;5089875;28;20137;-85
2024/01/04 11:00:59;;;;;;;0.10;0.10;;;;;;;;;;5091307;28;20135;-82
2024/01/04 11:03:29;;;;;;;0.15;0.15;;;;;;;;;;5082730;28;20135;-86
2024/01/04 11:05:59;;;;;;;0.10;0.10;;;;;;;;;;5104294;28;20057;-82
2024/01/04 11:08:27;;;;;;;0.10;0.10;;;;;;;;;;5092279;28;20502;-83
2024/01/04 11:10:54;;;;;;;0.10;0.10;;;;;;;;;;5091439;28;20052;-83
2024/01/04 11:13:25;;;;;;;0.10;0.10;;;;;;;;;;5086701;28;20067;-86
2024/01/04 11:15:55;;;;;;;0.10;0.10;;;;;;;;;;5081746;28;20056;-83
2024/01/04 11:18:37;;;;;;;0.10;0.10;;;;;;;;;;5091186;28;20132;-83
2024/01/04 11:21:04;;;;;;;0.10;0.10;;;;;;;;;;5090344;28;20053;-84
2024/01/04 11:23:42;;;;;;;0.10;0.10;;;;;;;;;;5090728;28;20510;-83
2024/01/04 11:26:29;;;;;;;0.10;0.10;;;;;;;;;;5106526;28;20060;-83
2024/01/04 11:28:58;;;;;;;0.10;0.10;;;;;;;;;;5084178;28;20057;-83
2024/01/04 11:31:25;;;;;;;0.10;0.10;;;;;;;;;;5087957;28;20494;-85
2024/01/04 11:33:52;;;;;;;0.10;0.10;;;;;;;;;;5086092;28;20061;-87
2024/01/04 11:36:19;;;;;;;0.10;0.10;;;;;;;;;;5082510;28;20210;-83
2024/01/04 11:38:46;;;;;;;0.00;0.00;;;;;;;;;;5089090;28;20766;-83
2024/01/04 11:41:13;;;;;;;0.10;0.10;;;;;;;;;;5090195;28;20075;-84
2024/01/04 11:43:40;;;;;;;0.10;0.10;;;;;;;;;;5086805;28;20053;-82
2024/01/04 11:46:18;;;;;;;0.10;0.10;;;;;;;;;;5087235;28;20140;-83
2024/01/04 11:49:05;;;;;;;0.10;0.10;;;;;;;;;;5090569;28;20058;-85
2024/01/04 11:51:44;;;;;;;0.10;0.10;;;;;;;;;;5085022;28;20059;-83
2024/01/04 11:54:13;;;;;;;0.10;0.10;;;;;;;;;;5084577;28;20099;-82
2024/01/04 11:56:40;;;;;;;0.22;0.22;;;;;;;;;;5090503;28;20055;-82
2024/01/04 11:59:10;;;;;;;0.00;0.00;;;;;;;;;;5091823;28;20601;-83
2024/01/04 12:01:39;;;;;;;0.10;0.10;;;;;;;;;;5089102;28;20084;-86
2024/01/04 12:04:12;;;;;;;0.10;0.10;;;;;;;;;;5083226;28;20059;-83
2024/01/04 12:06:40;;;;;;;0.10;0.10;;;;;;;;;;5081314;28;20107;-81
2024/01/04 12:09:07;;;;;;;0.10;0.10;;;;;;;;;;5103753;28;20094;-84
2024/01/04 12:11:35;;;;;;;0.10;0.10;;;;;;;;;;5083530;28;20049;-86
2024/01/04 12:14:06;;;;;;;0.03;0.03;;;;;;;;;;5079077;28;20049;-82
2024/01/04 12:16:34;;;;;;;0.10;0.10;;;;;;;;;;5079019;28;20107;-81
2024/01/04 12:19:02;;;;;;;0.10;0.10;;;;;;;;;;5085648;28;20060;-85
2024/01/04 12:21:30;;;;;;;0.10;0.10;;;;;;;;;;5093409;28;20066;-81
2024/01/04 12:23:58;;;;;;;0.10;0.10;;;;;;;;;;5081689;28;20056;-81
2024/01/04 12:26:26;;;;;;;0.10;0.10;;;;;;;;;;5085137;28;20067;-82
2024/01/04 12:28:55;;;;;;;0.10;0.10;;;;;;;;;;5104464;28;20083;-81
2024/01/04 12:31:24;;;;;;;0.10;0.10;;;;;;;;;;5088400;28;20130;-84
2024/01/04 12:33:54;;;;;;;0.10;0.10;;;;;;;;;;5084852;28;20584;-81
2024/01/04 12:36:22;;;;;;;0.10;0.10;;;;;;;;;;5084627;28;20068;-83
2024/01/04 12:38:53;;;;;;;0.10;0.10;;;;;;;;;;5170881;22;20098;-80
2024/01/04 12:41:23;;;;;;;0.10;0.10;;;;;;;;;;5106648;27;20048;-80
2024/01/04 12:43:50;;;;;;;0.32;0.32;;;;;;;;;;5108977;28;20736;-80
2024/01/04 12:46:19;;;;;;;0.10;0.10;;;;;;;;;;5108299;27;21039;-80
2024/01/04 12:48:46;;;;;;;0.10;0.10;;;;;;;;;;5105264;28;21969;-79
2024/01/04 12:51:14;;;;;;;0.20;0.20;;;;;;;;;;5109347;28;20725;-78
2024/01/04 12:53:44;;;;;;;0.10;0.10;;;;;;;;;;5101250;27;20076;-79
2024/01/04 12:56:12;;;;;;;0.10;0.10;;;;;;;;;;5108773;27;20047;-79
2024/01/04 12:58:41;;;;;;;0.10;0.10;;;;;;;;;;5107359;28;20059;-80
2024/01/04 13:01:07;;;;;;;0.10;0.10;;;;;;;;;;5104921;28;20101;-80
2024/01/04 13:03:34;;;;;;;0.10;0.10;;;;;;;;;;5108982;28;20498;-80
2024/01/04 13:06:02;;;;;;;0.50;0.50;;;;;;;;;;5112562;27;20062;-82
2024/01/04 13:08:29;;;;;;;0.10;0.10;;;;;;;;;;5105011;28;20052;-79
2024/01/04 13:10:56;;;;;;;0.10;0.10;;;;;;;;;;5109872;28;20087;-78
2024/01/04 13:13:23;;;;;;;0.10;0.10;;;;;;;;;;5115591;27;20048;-80
2024/01/04 13:15:50;;;;;;;0.10;0.10;;;;;;;;;;5108510;28;20051;-80
2024/01/04 13:18:16;;;;;;;0.10;0.10;;;;;;;;;;5104730;27;20056;-79
2024/01/04 13:20:43;;;;;;;0.10;0.10;;;;;;;;;;5104184;28;20080;-80
2024/01/04 13:23:10;;;;;;;0.10;0.10;;;;;;;;;;5106103;28;20059;-80
2024/01/04 13:25:36;;;;;;;0.10;0.10;;;;;;;;;;5101752;28;20068;-78
2024/01/04 13:28:03;;;;;;;0.10;0.10;;;;;;;;;;5108989;28;20040;-80
2024/01/04 13:30:31;;;;;;;0.10;0.10;;;;;;;;;;5113989;27;20124;-80
2024/01/04 13:32:58;;;;;;;0.10;0.10;;;;;;;;;;5112141;27;20074;-80
2024/01/04 13:35:24;;;;;;;0.10;0.10;;;;;;;;;;5102082;28;20490;-80
2024/01/04 13:37:51;;;;;;;0.10;0.10;;;;;;;;;;5101714;28;20044;-78
2024/01/04 13:40:17;;;;;;;0.17;0.17;;;;;;;;;;5104035;28;20052;-79
2024/01/04 13:42:45;;;;;;;0.10;0.10;;;;;;;;;;5103961;28;20048;-79
2024/01/04 13:45:12;;;;;;;0.10;0.10;;;;;;;;;;5106118;27;20505;-79
2024/01/04 13:47:39;;;;;;;0.10;0.10;;;;;;;;;;5111284;27;20058;-80
2024/01/04 13:50:06;;;;;;;0.10;0.10;;;;;;;;;;5105635;27;20874;-78
2024/01/04 13:52:33;;;;;;;0.10;0.10;;;;;;;;;;5098830;27;20048;-81
2024/01/04 13:55:00;;;;;;;0.10;0.10;;;;;;;;;;5114003;27;20063;-79
2024/01/04 13:57:26;;;;;;;0.10;0.10;;;;;;;;;;5112995;28;20506;-82
2024/01/04 13:59:55;;;;;;;0.10;0.10;;;;;;;;;;5105240;28;20168;-79
2024/01/04 14:02:22;;;;;;;0.10;0.10;;;;;;;;;;5097597;28;20519;-78
2024/01/04 14:04:48;;;;;;;0.10;0.10;;;;;;;;;;5104763;27;20045;-78
2024/01/04 14:07:14;;;;;;;0.10;0.10;;;;;;;;;;5103203;28;20038;-78
2024/01/04 14:09:41;;;;;;;0.10;0.10;;;;;;;;;;5104726;28;20052;-78
2024/01/04 14:12:10;;;;;;;0.10;0.10;;;;;;;;;;5101840;27;20502;-78
2024/01/04 14:14:37;;;;;;;0.10;0.10;;;;;;;;;;5109337;27;20105;-78
2024/01/04 14:17:03;;;;;;;0.10;0.10;;;;;;;;;;5096340;27;20113;-78
2024/01/04 14:19:30;;;;;;;0.10;0.10;;;;;;;;;;5106662;27;20060;-78
2024/01/04 14:21:56;;;;;;;0.10;0.10;;;;;;;;;;5115087;27;20048;-79
2024/01/04 14:24:23;;;;;;;0.10;0.10;;;;;;;;;;5109200;28;20052;-78
2024/01/04 14:26:50;;;;;;;0.10;0.10;;;;;;;;;;5112228;27;20054;-79
2024/01/04 14:29:17;;;;;;;0.10;0.10;;;;;;;;;;5113591;27;20115;-79
2024/01/04 14:31:46;;;;;;;0.10;0.10;;;;;;;;;;5110817;27;20645;-79
2024/01/04 14:34:13;;;;;;;0.10;0.10;;;;;;;;;;5110059;28;20043;-79
2024/01/04 14:36:41;;;;;;;0.10;0.10;;;;;;;;;;5109744;28;20063;-79
2024/01/04 14:39:10;;;;;;;0.10;0.10;;;;;;;;;;5115495;27;20048;-78
2024/01/04 14:41:40;;;;;;;0.10;0.10;;;;;;;;;;5111816;27;20477;-78
2024/01/04 14:44:07;;;;;;;0.10;0.10;;;;;;;;;;5105506;27;20056;-78
2024/01/04 14:46:33;;;;;;;0.10;0.10;;;;;;;;;;5111516;27;20060;-78